Time;durP1;ratioP1;P1;durP2;ratioP2;P2;SDS_P1;SDS_P2;PMS_P1;PMS_P2;Temp;Humidity;BMP_temperature;BMP_pressure;BME280_temperature;BME280_humidity;BME280_pressure;Samples;Min_cycle;Max_cycle;Signal;HPM_P1;HPM_P2
2023/10/02 00:01:23;;;;;;;14.50;6.57;;;15.50;99.90;;;;;;5090966;27;20048;-63
2023/10/02 00:04:18;;;;;;;22.45;7.50;;;15.40;99.90;;;;;;5079190;28;20427;-63
2023/10/02 00:07:08;;;;;;;19.95;7.57;;;15.40;99.90;;;;;;5071424;28;20424;-64
2023/10/02 00:09:49;;;;;;;17.33;7.47;;;15.50;99.90;;;;;;5076678;28;20047;-63
2023/10/02 00:12:31;;;;;;;16.48;7.35;;;15.50;99.90;;;;;;5075909;28;20459;-64
2023/10/02 00:15:12;;;;;;;19.73;7.93;;;15.50;99.90;;;;;;5078320;28;20046;-63
2023/10/02 00:17:52;;;;;;;21.42;8.20;;;15.40;99.90;;;;;;5062767;28;20128;-63
2023/10/02 00:20:21;;;;;;;;;;;15.50;99.90;;;;;;5060274;28;20614;-64
2023/10/02 00:22:52;;;;;;;17.08;7.43;;;15.40;99.90;;;;;;5061977;28;20047;-64
2023/10/02 00:25:19;;;;;;;15.30;6.82;;;15.50;99.90;;;;;;5063965;28;20036;-63
2023/10/02 00:27:48;;;;;;;26.60;8.68;;;15.40;99.90;;;;;;5062428;28;20055;-64
2023/10/02 00:30:15;;;;;;;16.70;7.60;;;15.40;99.90;;;;;;5064120;28;20050;-63
2023/10/02 00:32:41;;;;;;;20.30;8.02;;;15.30;99.90;;;;;;5085045;28;20052;-63
2023/10/02 00:35:10;;;;;;;17.42;7.78;;;15.30;99.90;;;;;;5086419;28;20123;-63
2023/10/02 00:37:51;;;;;;;16.85;7.60;;;15.30;99.90;;;;;;5085761;28;20482;-63
2023/10/02 00:40:22;;;;;;;15.98;6.97;;;15.30;99.90;;;;;;5084726;28;20036;-63
2023/10/02 00:42:56;;;;;;;19.33;7.53;;;15.30;99.90;;;;;;5081624;28;20032;-62
2023/10/02 00:45:29;;;;;;;14.75;7.35;;;15.30;99.90;;;;;;5081545;28;20055;-63
2023/10/02 00:48:25;;;;;;;16.17;7.32;;;15.20;99.90;;;;;;5083053;28;20433;-63
2023/10/02 00:50:50;;;;;;;18.75;7.90;;;15.30;99.90;;;;;;5085494;28;20051;-63
2023/10/02 00:53:21;;;;;;;17.27;7.22;;;15.30;99.90;;;;;;5083816;28;20687;-64
2023/10/02 00:55:47;;;;;;;15.93;6.00;;;15.30;99.90;;;;;;5085362;28;20051;-63
2023/10/02 00:58:15;;;;;;;;;;;15.30;99.90;;;;;;5085536;28;20032;-63
2023/10/02 01:00:48;;;;;;;18.13;7.35;;;15.30;99.90;;;;;;5085423;28;19923;-63
2023/10/02 01:03:17;;;;;;;14.15;6.78;;;15.30;99.90;;;;;;5084027;28;20452;-63
2023/10/02 01:05:58;;;;;;;17.25;6.45;;;15.40;99.90;;;;;;5081514;28;20051;-63
2023/10/02 01:08:24;;;;;;;14.73;6.30;;;15.30;99.90;;;;;;5083115;28;20040;-64
2023/10/02 01:10:57;;;;;;;17.10;7.22;;;15.40;99.90;;;;;;5080729;28;20480;-63
2023/10/02 01:13:29;;;;;;;19.40;6.78;;;15.40;99.90;;;;;;5084567;28;20047;-64
2023/10/02 01:16:00;;;;;;;18.77;8.00;;;15.40;99.90;;;;;;5085208;28;20542;-64
2023/10/02 01:18:29;;;;;;;15.20;7.55;;;15.40;99.90;;;;;;5084641;28;20040;-64
2023/10/02 01:21:00;;;;;;;16.30;7.00;;;15.40;99.90;;;;;;5082627;28;20032;-63
2023/10/02 01:23:27;;;;;;;15.00;6.20;;;15.40;99.90;;;;;;5084746;28;20122;-63
2023/10/02 01:25:57;;;;;;;14.70;6.63;;;15.40;99.90;;;;;;5084839;28;20093;-64
2023/10/02 01:28:52;;;;;;;16.15;6.40;;;15.30;99.90;;;;;;5081799;28;20084;-63
2023/10/02 01:31:31;;;;;;;16.77;7.07;;;15.30;99.90;;;;;;5082804;28;20097;-63
2023/10/02 01:33:59;;;;;;;16.83;7.50;;;15.30;99.90;;;;;;5084764;28;20040;-63
2023/10/02 01:36:35;;;;;;;16.33;7.10;;;15.30;99.90;;;;;;5084641;28;20122;-63
2023/10/02 01:39:13;;;;;;;17.52;7.07;;;15.30;99.90;;;;;;5082221;28;20818;-63
2023/10/02 01:41:40;;;;;;;22.27;7.25;;;15.20;99.90;;;;;;5084891;28;20055;-63
2023/10/02 01:44:11;;;;;;;13.93;6.65;;;15.20;99.90;;;;;;5084789;28;20040;-63
2023/10/02 01:46:49;;;;;;;13.60;6.93;;;15.10;99.90;;;;;;5085231;28;20032;-63
2023/10/02 01:49:25;;;;;;;18.50;7.07;;;15.10;99.90;;;;;;5083767;28;20039;-63
2023/10/02 01:52:02;;;;;;;18.88;7.57;;;15.10;99.90;;;;;;5084349;28;20040;-64
2023/10/02 01:54:31;;;;;;;17.63;7.50;;;15.10;99.90;;;;;;5084620;28;20735;-63
2023/10/02 01:56:57;;;;;;;17.40;7.80;;;15.10;99.90;;;;;;5083811;28;20063;-63
2023/10/02 01:59:24;;;;;;;;;;;15.10;99.90;;;;;;5084942;28;20063;-64
2023/10/02 02:01:52;;;;;;;16.58;7.68;;;15.10;99.90;;;;;;5081620;28;19947;-63
2023/10/02 02:04:27;;;;;;;16.48;7.28;;;15.10;99.90;;;;;;5080258;28;20043;-63
2023/10/02 02:06:57;;;;;;;17.17;8.38;;;15.10;99.90;;;;;;5081195;28;20417;-63
2023/10/02 02:09:24;;;;;;;17.92;7.80;;;15.00;99.90;;;;;;5076900;28;20040;-63
2023/10/02 02:12:05;;;;;;;15.30;7.70;;;15.10;99.90;;;;;;5083370;28;20043;-63
2023/10/02 02:14:49;;;;;;;19.42;8.20;;;15.10;99.90;;;;;;5080880;28;20043;-64
2023/10/02 02:17:18;;;;;;;16.98;8.02;;;15.10;99.90;;;;;;5080405;28;20043;-63
2023/10/02 02:19:48;;;;;;;23.27;8.65;;;15.10;99.90;;;;;;5083517;28;20507;-63
2023/10/02 02:22:26;;;;;;;14.52;7.70;;;15.10;99.90;;;;;;5077748;28;20043;-63
2023/10/02 02:24:55;;;;;;;20.60;8.10;;;15.10;99.90;;;;;;5084873;28;20089;-63
2023/10/02 02:27:21;;;;;;;21.27;8.30;;;15.10;99.90;;;;;;5082428;28;20519;-64
2023/10/02 02:29:48;;;;;;;24.55;8.73;;;15.10;99.90;;;;;;5080593;28;20036;-64
2023/10/02 02:32:19;;;;;;;20.90;8.90;;;15.00;99.90;;;;;;5081338;28;20028;-63
2023/10/02 02:34:48;;;;;;;21.83;7.40;;;15.10;99.90;;;;;;5082884;28;20032;-64
2023/10/02 02:37:15;;;;;;;23.25;9.00;;;15.10;99.90;;;;;;5082448;28;20048;-63
2023/10/02 02:39:41;;;;;;;18.13;8.05;;;15.00;99.90;;;;;;5081652;28;20048;-64
2023/10/02 02:44:47;;;;;;;17.90;8.10;;;15.00;99.90;;;;;;5081754;28;19920;-63
2023/10/02 02:47:14;;;;;;;18.30;7.68;;;15.10;99.90;;;;;;5079899;28;20472;-64
2023/10/02 02:50:00;;;;;;;21.25;9.75;;;15.00;99.90;;;;;;5084032;28;20036;-64
2023/10/02 02:52:33;;;;;;;19.83;8.27;;;15.00;99.90;;;;;;5082689;28;20043;-63
2023/10/02 02:55:12;;;;;;;21.08;8.38;;;15.00;99.90;;;;;;5082119;28;20044;-64
2023/10/02 02:57:40;;;;;;;19.27;8.52;;;15.00;99.90;;;;;;5080567;28;20047;-64
2023/10/02 03:02:55;;;;;;;20.75;8.90;;;14.90;99.90;;;;;;5081751;28;20126;-64
2023/10/02 03:05:25;;;;;;;22.85;8.93;;;15.00;99.90;;;;;;5082936;28;20238;-63
2023/10/02 03:07:56;;;;;;;19.80;7.70;;;15.00;99.90;;;;;;5081778;28;20028;-64
2023/10/02 03:10:23;;;;;;;16.55;8.20;;;14.90;99.90;;;;;;5080873;28;20071;-63
2023/10/02 03:12:51;;;;;;;27.17;8.65;;;14.90;99.90;;;;;;5082062;28;20044;-64
2023/10/02 03:15:45;;;;;;;18.05;7.93;;;15.00;99.90;;;;;;5083745;28;20040;-63
2023/10/02 03:18:30;;;;;;;21.42;8.43;;;14.90;99.90;;;;;;5080374;28;20074;-63
2023/10/02 03:21:25;;;;;;;18.77;8.25;;;14.90;99.90;;;;;;5081156;28;20060;-63
2023/10/02 03:23:58;;;;;;;18.05;7.80;;;14.90;99.90;;;;;;5080166;28;20134;-63
2023/10/02 03:29:01;;;;;;;21.13;8.48;;;14.80;99.90;;;;;;5079769;28;20032;-63
2023/10/02 03:31:36;;;;;;;16.92;8.00;;;14.80;99.90;;;;;;5082410;28;20170;-63
2023/10/02 03:36:54;;;;;;;17.30;7.82;;;14.60;99.90;;;;;;5082440;28;20039;-63
2023/10/02 03:39:51;;;;;;;15.77;7.97;;;14.50;99.90;;;;;;5081111;28;20093;-63
2023/10/02 03:42:12;;;;;;;19.38;8.05;;;14.50;99.90;;;;;;5080611;28;20130;-63
2023/10/02 03:44:42;;;;;;;20.25;8.55;;;14.50;99.90;;;;;;5083051;28;20036;-63
2023/10/02 03:47:12;;;;;;;20.27;7.80;;;14.40;99.90;;;;;;5082141;28;20487;-63
2023/10/02 03:49:42;;;;;;;24.10;8.40;;;14.40;99.90;;;;;;5082760;28;20059;-64
2023/10/02 03:52:08;;;;;;;21.98;8.15;;;14.30;99.90;;;;;;5081687;28;20042;-63
2023/10/02 03:54:34;;;;;;;21.27;8.20;;;14.30;99.90;;;;;;5085766;28;20101;-63
2023/10/02 03:57:01;;;;;;;19.25;8.57;;;14.30;99.90;;;;;;5082613;28;20055;-63
2023/10/02 03:59:32;;;;;;;22.08;8.25;;;14.20;99.90;;;;;;5085028;28;20047;-64
2023/10/02 04:02:24;;;;;;;23.70;8.70;;;14.10;99.90;;;;;;5086104;28;20071;-63
2023/10/02 04:04:46;;;;;;;20.25;8.55;;;14.10;99.90;;;;;;5083214;28;20138;-64
2023/10/02 04:07:12;;;;;;;18.35;8.45;;;14.10;99.90;;;;;;5085447;28;20044;-63
2023/10/02 04:09:38;;;;;;;;;;;14.00;99.90;;;;;;5085756;28;20123;-63
2023/10/02 04:12:07;;;;;;;21.42;7.85;;;13.90;99.90;;;;;;5085817;28;20010;-63
2023/10/02 04:14:33;;;;;;;20.63;8.25;;;13.90;99.90;;;;;;5084901;28;20149;-63
2023/10/02 04:19:51;;;;;;;17.30;8.10;;;13.90;99.90;;;;;;5084824;28;20064;-64
2023/10/02 04:22:27;;;;;;;19.58;8.32;;;13.90;99.90;;;;;;5080567;28;20043;-64
2023/10/02 04:24:58;;;;;;;19.88;8.13;;;13.90;99.90;;;;;;5085873;28;20642;-64
2023/10/02 04:32:39;;;;;;;17.58;7.78;;;13.80;99.90;;;;;;5061668;28;20072;-63
2023/10/02 04:35:40;;;;;;;24.15;8.70;;;13.90;99.90;;;;;;5066365;28;20070;-64
2023/10/02 04:37:51;;;;;;;15.40;7.75;;;13.90;99.90;;;;;;5061505;28;20076;-63
2023/10/02 04:40:23;;;;;;;;;;;13.80;99.90;;;;;;5064027;28;20075;-63
2023/10/02 04:42:58;;;;;;;21.33;7.82;;;13.80;99.90;;;;;;5061424;28;20437;-63
2023/10/02 04:45:34;;;;;;;18.35;8.63;;;13.80;99.90;;;;;;5062710;28;20047;-63
2023/10/02 04:48:00;;;;;;;20.70;8.32;;;13.70;99.90;;;;;;5060161;28;20040;-63
2023/10/02 04:53:03;;;;;;;;;;;13.60;99.90;;;;;;5063189;28;20094;-63
2023/10/02 04:55:49;;;;;;;24.30;8.82;;;13.60;99.90;;;;;;5065562;28;20434;-63
2023/10/02 04:58:20;;;;;;;16.90;7.95;;;13.60;99.90;;;;;;5061832;28;20041;-64
2023/10/02 05:03:30;;;;;;;20.35;8.43;;;13.60;99.90;;;;;;5081380;28;20245;-63
2023/10/02 05:05:58;;;;;;;20.50;8.13;;;13.50;99.90;;;;;;5084655;28;20032;-63
2023/10/02 05:08:40;;;;;;;18.17;7.72;;;13.50;99.90;;;;;;5081764;28;20067;-63
2023/10/02 05:11:08;;;;;;;23.23;8.90;;;13.50;99.90;;;;;;5083289;28;20491;-63
2023/10/02 05:16:34;;;;;;;19.55;8.70;;;13.60;99.90;;;;;;5080360;28;20397;-63
2023/10/02 05:19:07;;;;;;;17.83;7.38;;;13.50;99.90;;;;;;5077579;28;20117;-62
2023/10/02 05:21:38;;;;;;;18.92;7.88;;;13.50;99.90;;;;;;5080910;28;20043;-62
2023/10/02 05:24:12;;;;;;;21.30;8.38;;;13.50;99.90;;;;;;5085428;28;20051;-63
2023/10/02 05:26:44;;;;;;;18.15;7.95;;;13.50;99.90;;;;;;5082524;28;20507;-66
2023/10/02 05:29:17;;;;;;;17.55;7.80;;;13.50;99.90;;;;;;5079764;28;20051;-65
2023/10/02 05:31:47;;;;;;;21.52;7.45;;;13.50;99.90;;;;;;5082559;28;20036;-64
2023/10/02 05:34:23;;;;;;;16.25;7.85;;;13.50;99.90;;;;;;5083958;28;20074;-66
2023/10/02 05:39:39;;;;;;;18.27;7.97;;;13.40;99.90;;;;;;5081716;28;20044;-65
2023/10/02 05:42:06;;;;;;;24.40;8.80;;;13.40;99.90;;;;;;5083421;28;20032;-61
2023/10/02 05:44:36;;;;;;;20.60;7.32;;;13.30;99.90;;;;;;5079047;28;20498;-65
2023/10/02 05:47:07;;;;;;;16.85;7.43;;;13.30;99.90;;;;;;5083461;28;20783;-62
2023/10/02 05:49:36;;;;;;;19.02;8.45;;;13.30;99.90;;;;;;5083538;28;20040;-65
2023/10/02 05:52:03;;;;;;;16.17;7.63;;;13.30;99.90;;;;;;5082596;28;20170;-63
2023/10/02 05:54:29;;;;;;;17.77;8.20;;;13.30;99.90;;;;;;5080615;28;20055;-64
2023/10/02 05:57:12;;;;;;;16.95;7.20;;;13.30;99.90;;;;;;5080960;28;20490;-63
2023/10/02 05:59:47;;;;;;;19.45;8.88;;;13.30;99.90;;;;;;5082189;28;20036;-63
2023/10/02 06:02:14;;;;;;;26.35;9.55;;;13.30;99.90;;;;;;5082024;28;20036;-63
2023/10/02 06:04:43;;;;;;;19.48;7.40;;;13.30;99.90;;;;;;5083583;28;20445;-63
2023/10/02 06:07:11;;;;;;;20.90;8.13;;;13.30;99.90;;;;;;5080534;28;20036;-63
2023/10/02 06:09:44;;;;;;;19.58;8.68;;;13.30;99.90;;;;;;5080399;28;20044;-63
2023/10/02 06:12:11;;;;;;;16.88;7.93;;;13.30;99.90;;;;;;5081878;28;20040;-63
2023/10/02 06:14:39;;;;;;;19.88;7.95;;;13.30;99.90;;;;;;5082499;28;20593;-64
2023/10/02 06:17:11;;;;;;;20.70;7.93;;;13.30;99.90;;;;;;5079741;28;20036;-64
2023/10/02 06:19:43;;;;;;;21.85;8.45;;;13.40;99.90;;;;;;5081299;28;20040;-64
2023/10/02 06:22:13;;;;;;;18.15;7.03;;;13.40;99.90;;;;;;5082528;28;20040;-64
2023/10/02 06:24:45;;;;;;;17.42;8.48;;;13.50;99.90;;;;;;5079319;28;20503;-63
2023/10/02 06:27:15;;;;;;;20.38;8.25;;;13.50;99.90;;;;;;5083526;28;20051;-63
2023/10/02 06:29:47;;;;;;;20.75;8.18;;;13.50;99.90;;;;;;5077639;28;20495;-64
2023/10/02 06:32:20;;;;;;;16.98;8.35;;;13.60;99.90;;;;;;5079090;28;20115;-64
2023/10/02 06:34:47;;;;;;;17.42;7.95;;;13.70;99.90;;;;;;5080881;28;20185;-63
2023/10/02 06:37:16;;;;;;;20.67;8.65;;;13.70;99.90;;;;;;5081461;28;20497;-63
2023/10/02 06:40:13;;;;;;;19.98;8.30;;;13.70;99.90;;;;;;5079539;28;20059;-63
2023/10/02 06:42:57;;;;;;;23.52;8.18;;;13.70;99.90;;;;;;5082369;28;20055;-64
2023/10/02 06:45:29;;;;;;;19.30;8.60;;;13.80;99.90;;;;;;5084709;28;20599;-64
2023/10/02 06:47:58;;;;;;;21.27;9.27;;;13.80;99.90;;;;;;5078359;28;20043;-63
2023/10/02 06:50:34;;;;;;;19.10;8.50;;;13.90;99.90;;;;;;5084170;28;20047;-64
2023/10/02 06:53:00;;;;;;;23.42;9.68;;;14.00;99.90;;;;;;5082997;28;20495;-63
2023/10/02 06:55:26;;;;;;;;;;;14.10;99.90;;;;;;5083907;28;20067;-64
2023/10/02 06:57:53;;;;;;;19.15;8.57;;;14.30;99.90;;;;;;5077923;28;19927;-64
2023/10/02 07:00:20;;;;;;;18.60;7.78;;;14.40;99.90;;;;;;5082669;28;20044;-63
2023/10/02 07:02:58;;;;;;;21.38;8.95;;;14.40;99.90;;;;;;5077735;28;20199;-63
2023/10/02 07:05:32;;;;;;;19.60;7.70;;;14.50;99.90;;;;;;5080179;28;20754;-64
2023/10/02 07:08:22;;;;;;;18.75;8.15;;;14.60;99.90;;;;;;5078256;28;20134;-64
2023/10/02 07:10:48;;;;;;;24.15;9.10;;;14.60;99.90;;;;;;5081518;28;20043;-64
2023/10/02 07:13:20;;;;;;;24.63;9.13;;;14.60;99.90;;;;;;5078492;28;20394;-64
2023/10/02 07:15:55;;;;;;;22.73;8.10;;;14.70;99.90;;;;;;5082923;28;20504;-64
2023/10/02 07:18:35;;;;;;;19.05;8.88;;;14.80;99.90;;;;;;5077629;28;20058;-64
2023/10/02 07:21:01;;;;;;;18.42;8.35;;;14.90;99.90;;;;;;5084437;28;20735;-64
2023/10/02 07:23:30;;;;;;;19.92;8.48;;;15.00;99.90;;;;;;5078690;28;20094;-64
2023/10/02 07:25:56;;;;;;;21.83;8.48;;;15.00;99.90;;;;;;5078844;28;20048;-63
2023/10/02 07:28:22;;;;;;;;;;;15.10;99.90;;;;;;5079297;28;20526;-63
2023/10/02 07:30:52;;;;;;;16.92;7.97;;;15.10;99.90;;;;;;5081186;28;19916;-63
2023/10/02 07:33:19;;;;;;;20.60;8.85;;;15.10;99.90;;;;;;5083205;28;20061;-63
2023/10/02 07:35:54;;;;;;;18.55;8.68;;;15.20;99.90;;;;;;5084647;28;20073;-63
2023/10/02 07:38:30;;;;;;;23.67;8.02;;;15.30;99.90;;;;;;5088293;28;20118;-63
2023/10/02 07:41:06;;;;;;;19.60;8.88;;;15.40;99.90;;;;;;5086645;28;20036;-63
2023/10/02 07:43:33;;;;;;;23.08;8.38;;;15.60;99.90;;;;;;5082910;28;20158;-63
2023/10/02 07:46:22;;;;;;;19.08;8.70;;;15.80;99.90;;;;;;5089117;28;20185;-63
2023/10/02 07:48:57;;;;;;;21.60;8.07;;;15.90;99.90;;;;;;5082142;28;20119;-63
2023/10/02 07:51:30;;;;;;;22.95;9.00;;;16.00;99.90;;;;;;5082524;28;20044;-63
2023/10/02 07:53:59;;;;;;;28.65;8.65;;;16.10;99.90;;;;;;5081990;28;20079;-63
2023/10/02 07:56:27;;;;;;;17.73;7.80;;;16.20;99.90;;;;;;5088770;28;20048;-64
2023/10/02 07:58:55;;;;;;;23.10;8.57;;;16.30;99.90;;;;;;5082260;28;20050;-64
2023/10/02 08:01:27;;;;;;;20.27;7.53;;;16.40;99.90;;;;;;5076007;28;20048;-64
2023/10/02 08:03:55;;;;;;;21.35;8.70;;;16.40;99.90;;;;;;5061937;28;20045;-63
2023/10/02 08:06:22;;;;;;;23.98;9.02;;;16.50;99.90;;;;;;5062436;28;20394;-65
2023/10/02 08:11:49;;;;;;;21.13;7.97;;;16.70;99.90;;;;;;5064891;28;20092;-65
2023/10/02 08:14:35;;;;;;;19.98;8.18;;;16.80;99.90;;;;;;5061978;28;20039;-65
2023/10/02 08:17:27;;;;;;;20.88;8.73;;;16.90;99.90;;;;;;5064874;28;20040;-65
2023/10/02 08:19:55;;;;;;;21.20;8.20;;;17.00;99.90;;;;;;5058606;28;20055;-65
2023/10/02 08:22:23;;;;;;;19.17;8.70;;;17.10;99.90;;;;;;5061858;28;20036;-66
2023/10/02 08:24:49;;;;;;;20.25;8.10;;;17.20;99.90;;;;;;5066542;28;20044;-65
2023/10/02 08:27:15;;;;;;;17.92;7.63;;;17.40;99.90;;;;;;5064102;28;20051;-64
2023/10/02 08:29:41;;;;;;;;;;;17.70;99.90;;;;;;5067487;28;20040;-64
2023/10/02 08:32:07;;;;;;;19.63;8.18;;;17.90;99.90;;;;;;5080040;28;19916;-62
2023/10/02 08:34:32;;;;;;;;;;;18.00;99.90;;;;;;5086750;28;20032;-62
2023/10/02 08:37:07;;;;;;;16.27;7.35;;;18.20;99.90;;;;;;5081841;28;19966;-63
2023/10/02 08:39:38;;;;;;;19.23;6.38;;;18.30;99.90;;;;;;5084714;28;20048;-63
2023/10/02 08:42:11;;;;;;;19.75;8.27;;;18.50;99.90;;;;;;5085792;28;20058;-63
2023/10/02 08:44:38;;;;;;;16.30;7.18;;;18.70;99.90;;;;;;5085661;28;20032;-63
2023/10/02 08:47:06;;;;;;;15.52;7.55;;;18.90;99.90;;;;;;5084695;28;20040;-63
2023/10/02 08:49:34;;;;;;;18.27;7.10;;;19.20;99.90;;;;;;5077793;28;20044;-63
2023/10/02 08:52:03;;;;;;;18.70;7.45;;;19.40;99.90;;;;;;5083765;28;20036;-63
2023/10/02 08:54:31;;;;;;;17.27;7.53;;;19.50;99.90;;;;;;5081782;28;20066;-63
2023/10/02 08:57:08;;;;;;;18.05;7.75;;;19.70;99.90;;;;;;5081538;28;20402;-63
2023/10/02 08:59:38;;;;;;;25.65;8.00;;;19.80;99.90;;;;;;5082237;28;20079;-64
2023/10/02 09:02:17;;;;;;;18.05;7.28;;;19.90;99.90;;;;;;5083673;28;20047;-63
2023/10/02 09:05:09;;;;;;;15.75;7.22;;;20.10;99.90;;;;;;5083115;28;20443;-63
2023/10/02 09:10:25;;;;;;;16.33;6.88;;;20.40;99.90;;;;;;5086375;28;20591;-63
2023/10/02 09:13:12;;;;;;;14.95;6.95;;;20.50;99.90;;;;;;5080546;28;20040;-63
2023/10/02 09:15:38;;;;;;;13.00;6.03;;;20.70;99.90;;;;;;5082957;28;20040;-63
2023/10/02 09:18:22;;;;;;;15.98;6.43;;;20.80;99.90;;;;;;5079737;28;20059;-63
2023/10/02 09:21:04;;;;;;;14.98;6.35;;;21.00;99.90;;;;;;5085290;28;20046;-63
2023/10/02 09:23:30;;;;;;;14.52;6.35;;;21.00;99.90;;;;;;5074246;28;20036;-64
2023/10/02 09:26:23;;;;;;;14.88;6.53;;;21.20;99.90;;;;;;5085158;28;20443;-63
2023/10/02 09:28:59;;;;;;;14.43;6.82;;;21.40;99.90;;;;;;5078958;28;20159;-63
2023/10/02 09:31:30;;;;;;;14.20;6.13;;;21.50;99.90;;;;;;5070692;28;20044;-63
2023/10/02 09:33:56;;;;;;;14.25;5.60;;;21.60;99.90;;;;;;5057036;28;20039;-64
2023/10/02 09:37:11;;;;;;;14.57;6.57;;;21.70;99.90;;;;;;5065888;28;20041;-63
2023/10/02 09:42:07;;;;;;;12.73;6.10;;;21.90;99.90;;;;;;5063862;28;20040;-63
2023/10/02 09:44:40;;;;;;;14.60;6.10;;;21.90;99.90;;;;;;5064007;28;20049;-64
2023/10/02 09:47:08;;;;;;;13.20;5.82;;;21.90;99.90;;;;;;5061973;28;20051;-64
2023/10/02 09:49:47;;;;;;;13.77;5.85;;;22.10;99.90;;;;;;5061018;28;20108;-64
2023/10/02 09:52:23;;;;;;;16.38;5.93;;;22.20;99.90;;;;;;5062096;28;20043;-65
2023/10/02 09:55:14;;;;;;;11.50;5.55;;;22.30;99.90;;;;;;5063612;28;20080;-64
2023/10/02 09:57:49;;;;;;;13.13;6.13;;;22.40;99.90;;;;;;5059026;28;20056;-64
2023/10/02 10:00:34;;;;;;;10.98;5.32;;;;;;;;;;5061396;28;20048;-64
2023/10/02 10:03:22;;;;;;;12.98;6.22;;;;;;;;;;5058126;28;20048;-64
2023/10/02 10:06:06;;;;;;;10.65;4.68;;;;;;;;;;5064231;28;20045;-66
2023/10/02 10:09:18;;;;;;;12.50;4.90;;;;;;;;;;5055955;28;20439;-65
2023/10/02 10:11:37;;;;;;;14.15;5.30;;;;;;;;;;5061140;28;20040;-64
2023/10/02 10:14:35;;;;;;;10.68;4.63;;;;;;;;;;5063531;28;20043;-63
2023/10/02 10:17:14;;;;;;;12.18;5.80;;;;;;;;;;5059950;28;20037;-62
2023/10/02 10:20:18;;;;;;;9.55;4.25;;;;;;;;;;5061110;28;20056;-63
2023/10/02 10:22:51;;;;;;;11.77;5.03;;;;;;;;;;5064092;28;20455;-62
2023/10/02 10:25:23;;;;;;;11.10;5.22;;;;;;;;;;5062635;28;20040;-63
2023/10/02 10:27:54;;;;;;;10.25;4.80;;;;;;;;;;5061004;28;20036;-62
2023/10/02 10:30:28;;;;;;;9.60;5.05;;;;;;;;;;5059841;28;20040;-61
2023/10/02 10:33:15;;;;;;;11.38;4.70;;;;;;;;;;5061144;28;20040;-63
2023/10/02 10:35:49;;;;;;;8.75;4.20;;;;;;;;;;5063307;28;20041;-63
2023/10/02 10:38:42;;;;;;;10.77;4.72;;;;;;;;;;5062702;28;20025;-62
2023/10/02 10:41:27;;;;;;;8.05;4.47;;;;;;;;;;5060682;28;20032;-63
2023/10/02 10:43:56;;;;;;;11.25;4.55;;;;;;;;;;5060674;28;20044;-63
2023/10/02 10:46:24;;;;;;;9.98;4.30;;;;;;;;;;5063223;28;20052;-63
2023/10/02 10:49:07;;;;;;;8.15;4.28;;;;;;;;;;5062087;28;20044;-62
2023/10/02 10:51:42;;;;;;;7.93;4.13;;;;;;;;;;5059741;28;20037;-62
2023/10/02 10:54:13;;;;;;;7.00;4.00;;;;;;;;;;5060650;28;20029;-62
2023/10/02 10:56:45;;;;;;;7.38;4.28;;;;;;;;;;5062523;28;20061;-62
2023/10/02 10:59:24;;;;;;;7.25;4.00;;;;;;;;;;5061976;28;20048;-64
2023/10/02 11:02:10;;;;;;;9.82;4.32;;;;;;;;;;5075570;28;20028;-62
2023/10/02 11:04:39;;;;;;;7.45;3.72;;;;;;;;;;5080800;28;20024;-63
2023/10/02 11:07:25;;;;;;;13.90;3.85;;;;;;;;;;5079465;28;20056;-63
2023/10/02 11:10:16;;;;;;;8.25;3.75;;;;;;;;;;5080558;28;20489;-63
2023/10/02 11:12:56;;;;;;;8.80;3.65;;;;;;;;;;5080351;28;20081;-63
2023/10/02 11:15:58;;;;;;;9.65;3.97;;;;;;;;;;5081676;28;20121;-62
2023/10/02 11:18:20;;;;;;;7.50;3.22;;;;;;;;;;5077347;28;20582;-62
2023/10/02 11:21:04;;;;;;;7.03;3.45;;;;;;;;;;5081100;28;20051;-62
2023/10/02 11:23:46;;;;;;;7.15;3.22;;;;;;;;;;5081675;28;20116;-62
2023/10/02 11:26:13;;;;;;;9.10;3.75;;;;;;;;;;5080907;28;20649;-63
2023/10/02 11:28:45;;;;;;;6.22;2.75;;;;;;;;;;5077563;28;20032;-63
2023/10/02 11:31:29;;;;;;;10.88;3.35;;;;;;;;;;5082742;28;20712;-62
2023/10/02 11:34:00;;;;;;;7.22;3.08;;;;;;;;;;5081454;28;20040;-63
2023/10/02 11:36:28;;;;;;;7.80;3.47;;;;;;;;;;5083995;28;20893;-63
2023/10/02 11:38:54;;;;;;;6.32;3.28;;;;;;;;;;5081424;28;20044;-63
2023/10/02 11:41:20;;;;;;;7.93;2.80;;;;;;;;;;5080779;28;20587;-63
2023/10/02 11:43:48;;;;;;;8.25;3.60;;;;;;;;;;5083559;28;20107;-63
2023/10/02 11:46:14;;;;;;;6.25;2.80;;;;;;;;;;5082555;28;20044;-63
2023/10/02 11:48:40;;;;;;;6.93;3.10;;;;;;;;;;5081082;28;20036;-63
2023/10/02 11:51:07;;;;;;;6.93;3.28;;;;;;;;;;5080987;28;20032;-63
2023/10/02 11:53:34;;;;;;;7.03;3.40;;;;;;;;;;5080534;28;20491;-63
2023/10/02 11:56:01;;;;;;;7.00;3.45;;;;;;;;;;5083480;28;20063;-62
2023/10/02 11:58:28;;;;;;;6.15;3.10;;;;;;;;;;5081090;28;20042;-63
2023/10/02 12:00:54;;;;;;;5.65;2.80;;;;;;;;;;5078042;28;20036;-63
2023/10/02 12:03:20;;;;;;;7.18;3.70;;;;;;;;;;5083023;28;20454;-63
2023/10/02 12:05:46;;;;;;;7.32;3.38;;;;;;;;;;5083451;28;20032;-63
2023/10/02 12:08:12;;;;;;;5.65;3.08;;;;;;;;;;5080534;28;20039;-63
2023/10/02 12:10:41;;;;;;;5.47;2.60;;;;;;;;;;5083160;28;20032;-64
2023/10/02 12:13:07;;;;;;;7.30;2.88;;;;;;;;;;5077433;28;20079;-62
2023/10/02 12:15:33;;;;;;;6.72;3.47;;;;;;;;;;5080730;28;20047;-62
2023/10/02 12:18:00;;;;;;;6.68;3.10;;;;;;;;;;5085606;28;20036;-63
2023/10/02 12:20:26;;;;;;;5.97;2.78;;;;;;;;;;5084507;28;20467;-64
2023/10/02 12:22:53;;;;;;;11.05;2.78;;;;;;;;;;5084319;28;20051;-64
2023/10/02 12:25:19;;;;;;;7.38;3.03;;;;;;;;;;5085048;28;20044;-63
2023/10/02 12:27:46;;;;;;;8.48;3.05;;;;;;;;;;5080914;28;20032;-64
2023/10/02 12:30:12;;;;;;;7.40;3.15;;;;;;;;;;5084225;28;20040;-64
2023/10/02 12:32:40;;;;;;;6.28;2.95;;;;;;;;;;5077531;28;20065;-64
2023/10/02 12:35:06;;;;;;;5.55;2.70;;;;;;;;;;5086759;28;20491;-65
2023/10/02 12:37:32;;;;;;;7.40;2.85;;;;;;;;;;5080899;28;20071;-65
2023/10/02 12:39:58;;;;;;;5.88;2.70;;;;;;;;;;5083753;28;20629;-65
2023/10/02 12:42:25;;;;;;;5.47;2.50;;;;;;;;;;5080579;28;20036;-64
2023/10/02 12:44:54;;;;;;;5.82;3.03;;;;;;;;;;5080978;28;20036;-64
2023/10/02 12:47:21;;;;;;;7.07;3.28;;;;;;;;;;5078235;28;20043;-65
2023/10/02 12:49:54;;;;;;;5.90;3.15;;;;;;;;;;5084261;28;20036;-65
2023/10/02 12:52:22;;;;;;;7.07;3.17;;;;;;;;;;5077785;28;20043;-64
2023/10/02 12:54:48;;;;;;;5.90;3.08;;;;;;;;;;5085796;28;20047;-65
2023/10/02 12:57:14;;;;;;;8.55;3.33;;;;;;;;;;5081236;28;20100;-65
2023/10/02 12:59:41;;;;;;;5.45;2.45;;;;;;;;;;5082449;28;20036;-65
2023/10/02 13:02:07;;;;;;;6.50;3.08;;;;;;;;;;5076205;28;20032;-65
2023/10/02 13:04:33;;;;;;;8.07;3.13;;;;;;;;;;5086122;28;20040;-65
2023/10/02 13:07:01;;;;;;;9.07;3.05;;;;;;;;;;5080860;28;20295;-65
2023/10/02 13:09:27;;;;;;;7.65;3.47;;;;;;;;;;5083856;28;20036;-65
2023/10/02 13:11:55;;;;;;;7.28;3.15;;;;;;;;;;5085077;28;20044;-65
2023/10/02 13:14:21;;;;;;;5.03;2.60;;;;;;;;;;5084757;28;20043;-64
2023/10/02 13:16:48;;;;;;;6.80;3.30;;;;;;;;;;5085673;28;20051;-64
2023/10/02 13:19:15;;;;;;;5.28;3.03;;;;;;;;;;5082591;28;20126;-64
2023/10/02 13:21:41;;;;;;;6.85;3.33;;;;;;;;;;5081800;28;20052;-65
2023/10/02 13:24:14;;;;;;;7.15;3.40;;;;;;;;;;5078809;28;20046;-65
2023/10/02 13:26:40;;;;;;;9.10;3.60;;;;;;;;;;5081232;28;20078;-65
2023/10/02 13:29:07;;;;;;;10.10;3.70;;;;;;;;;;5083202;28;20043;-66
2023/10/02 13:31:33;;;;;;;6.18;3.15;;;;;;;;;;5081114;28;20769;-64
2023/10/02 13:34:00;;;;;;;8.13;3.97;;;;;;;;;;5082431;28;20032;-65
2023/10/02 13:36:27;;;;;;;8.55;3.88;;;;;;;;;;5083051;28;20101;-65
2023/10/02 13:38:54;;;;;;;8.23;4.05;;;;;;;;;;5084319;28;20044;-65
2023/10/02 13:41:21;;;;;;;6.65;3.00;;;;;;;;;;5083090;28;20476;-64
2023/10/02 13:43:48;;;;;;;10.18;2.90;;;;;;;;;;5080935;28;20495;-63
2023/10/02 13:46:17;;;;;;;5.75;3.03;;;;;;;;;;5084315;28;20077;-63
2023/10/02 13:48:47;;;;;;;7.30;3.15;;;;;;;;;;5080883;28;20039;-63
2023/10/02 13:51:16;;;;;;;8.38;3.58;;;;;;;;;;5083251;28;20101;-65
2023/10/02 13:53:42;;;;;;;6.18;3.00;;;;;;;;;;5077181;28;20060;-64
2023/10/02 13:56:20;;;;;;;5.88;2.90;;;;;;;;;;5081128;28;20162;-64
2023/10/02 13:58:50;;;;;;;5.35;3.08;;;;;;;;;;5079589;28;20041;-64
2023/10/02 14:01:19;;;;;;;6.20;3.05;;;;;;;;;;5081747;28;20824;-64
2023/10/02 14:03:45;;;;;;;8.10;2.55;;;;;;;;;;5080912;28;20083;-64
2023/10/02 14:06:12;;;;;;;7.05;3.15;;;;;;;;;;5083405;28;20044;-63
2023/10/02 14:08:42;;;;;;;5.45;2.67;;;;;;;;;;5077406;28;20047;-64
2023/10/02 14:11:08;;;;;;;6.43;2.95;;;;;;;;;;5082894;28;20115;-64
2023/10/02 14:13:35;;;;;;;6.57;2.80;;;;;;;;;;5074592;28;20062;-63
2023/10/02 14:16:05;;;;;;;4.70;2.50;;;;;;;;;;5080118;28;20051;-65
2023/10/02 14:18:31;;;;;;;6.03;2.55;;;;;;;;;;5080126;28;20048;-64
2023/10/02 14:21:01;;;;;;;4.85;2.63;;;;;;;;;;5083508;28;20040;-63